Time;durP1;ratioP1;P1;durP2;ratioP2;P2;SDS_P1;SDS_P2;PMS_P1;PMS_P2;Temp;Humidity;BMP_temperature;BMP_pressure;BME280_temperature;BME280_humidity;BME280_pressure;Samples;Min_cycle;Max_cycle;Signal;HPM_P1;HPM_P2
2023/06/28 00:01:20;;;;;;;7.73;2.43;;;12.80;64.90;;;;;;5004176;28;20909;-50
2023/06/28 00:03:48;;;;;;;8.00;2.50;;;12.80;64.20;;;;;;5006321;28;20559;-50
2023/06/28 00:06:15;;;;;;;6.13;1.97;;;12.80;67.20;;;;;;5008634;28;20460;-50
2023/06/28 00:08:41;;;;;;;5.77;2.60;;;12.80;70.80;;;;;;5000336;28;20476;-51
2023/06/28 00:11:08;;;;;;;6.33;2.00;;;12.80;68.40;;;;;;5010528;28;20916;-50
2023/06/28 00:13:35;;;;;;;10.03;2.63;;;12.80;71.40;;;;;;5006048;28;20582;-50
2023/06/28 00:16:02;;;;;;;4.30;2.47;;;12.80;70.50;;;;;;5000031;28;20938;-50
2023/06/28 00:18:29;;;;;;;10.20;2.60;;;12.80;71.60;;;;;;5007036;28;20546;-51
2023/06/28 00:20:57;;;;;;;9.90;3.43;;;12.80;73.50;;;;;;5006509;28;20471;-50
2023/06/28 00:23:24;;;;;;;7.87;2.30;;;12.80;71.10;;;;;;5006475;28;20481;-50
2023/06/28 00:25:51;;;;;;;8.73;2.53;;;12.80;66.20;;;;;;5001011;28;20555;-51
2023/06/28 00:28:18;;;;;;;7.47;2.70;;;12.70;69.60;;;;;;5005637;28;20571;-51
2023/06/28 00:30:44;;;;;;;5.83;2.20;;;12.70;67.70;;;;;;5004362;28;20572;-51
2023/06/28 00:33:11;;;;;;;5.90;2.33;;;12.70;70.30;;;;;;5008174;28;20550;-50
2023/06/28 00:35:37;;;;;;;12.30;2.90;;;12.70;71.90;;;;;;5005197;28;20496;-50
2023/06/28 00:38:05;;;;;;;12.33;2.40;;;12.60;72.00;;;;;;5010366;28;20916;-51
2023/06/28 00:40:31;;;;;;;7.77;3.10;;;12.70;74.30;;;;;;5008329;28;20555;-50
2023/06/28 00:42:58;;;;;;;9.50;2.37;;;12.70;73.60;;;;;;5009301;28;20588;-51
2023/06/28 00:45:24;;;;;;;6.33;2.37;;;12.70;79.50;;;;;;5007730;28;20542;-50
2023/06/28 00:47:51;;;;;;;5.00;2.60;;;12.70;78.20;;;;;;5007228;28;20566;-50
2023/06/28 00:50:19;;;;;;;7.23;2.87;;;12.60;82.60;;;;;;5005542;28;20571;-50
2023/06/28 00:52:45;;;;;;;8.50;2.17;;;12.70;79.20;;;;;;5010552;28;20466;-50
2023/06/28 00:55:13;;;;;;;3.87;2.20;;;12.60;84.10;;;;;;5010980;28;20575;-50
2023/06/28 00:57:40;;;;;;;10.27;2.60;;;12.60;83.30;;;;;;5002385;28;20884;-50
2023/06/28 01:00:11;;;;;;;5.90;2.30;;;12.60;86.50;;;;;;5007820;28;20499;-49
2023/06/28 01:02:41;;;;;;;10.37;2.63;;;12.60;86.70;;;;;;5010642;28;21104;-50
2023/06/28 01:05:08;;;;;;;11.63;2.70;;;12.60;89.50;;;;;;5005670;28;20466;-51
2023/06/28 01:07:36;;;;;;;13.27;2.90;;;12.60;87.70;;;;;;5005657;28;21057;-51
2023/06/28 01:10:03;;;;;;;8.73;2.77;;;12.60;87.80;;;;;;5010037;28;20546;-50
2023/06/28 01:12:32;;;;;;;11.53;2.70;;;12.60;83.90;;;;;;5010865;28;20480;-53
2023/06/28 01:14:58;;;;;;;7.53;2.67;;;12.60;82.20;;;;;;5008179;28;20575;-53
2023/06/28 01:17:25;;;;;;;6.87;2.70;;;12.60;83.50;;;;;;5001059;28;20900;-52
2023/06/28 01:19:54;;;;;;;5.17;2.13;;;12.60;84.10;;;;;;5003335;28;20872;-52
2023/06/28 01:22:21;;;;;;;11.57;3.50;;;12.60;84.90;;;;;;5011072;28;20952;-53
2023/06/28 01:24:49;;;;;;;12.50;2.90;;;12.60;85.00;;;;;;5006992;28;20445;-52
2023/06/28 01:27:16;;;;;;;7.77;2.97;;;12.50;83.90;;;;;;5005918;28;20503;-52
2023/06/28 01:29:43;;;;;;;10.67;3.10;;;12.50;80.40;;;;;;5007800;28;20567;-52
2023/06/28 01:32:09;;;;;;;6.90;2.70;;;12.50;78.40;;;;;;5008397;28;20452;-52
2023/06/28 01:34:36;;;;;;;4.07;2.50;;;12.50;75.20;;;;;;5003920;28;20494;-51
2023/06/28 01:37:03;;;;;;;6.87;2.10;;;12.50;76.00;;;;;;5003498;28;20574;-50
2023/06/28 01:39:32;;;;;;;5.63;2.77;;;12.40;76.30;;;;;;5003906;28;20555;-49
2023/06/28 01:42:00;;;;;;;5.60;2.07;;;12.40;78.80;;;;;;5009427;28;20546;-50
2023/06/28 01:44:27;;;;;;;7.67;2.80;;;12.40;77.50;;;;;;5002776;28;21009;-50
2023/06/28 01:46:54;;;;;;;12.50;3.20;;;12.40;75.40;;;;;;5008422;28;20931;-50
2023/06/28 01:49:21;;;;;;;10.47;3.17;;;12.40;72.60;;;;;;5008103;28;20547;-49
2023/06/28 01:51:48;;;;;;;11.07;2.80;;;12.40;69.60;;;;;;5005672;28;20559;-50
2023/06/28 01:54:16;;;;;;;15.73;2.80;;;12.30;70.70;;;;;;5008329;28;20569;-50
2023/06/28 01:56:42;;;;;;;6.67;2.80;;;12.30;68.90;;;;;;5003120;28;20550;-49
2023/06/28 01:59:10;;;;;;;14.20;2.73;;;12.30;69.90;;;;;;5006213;28;20515;-49
2023/06/28 02:01:37;;;;;;;5.17;2.60;;;12.30;68.20;;;;;;5007170;28;20503;-51
2023/06/28 02:04:03;;;;;;;4.10;2.80;;;12.30;67.00;;;;;;5005652;28;20448;-49
2023/06/28 02:06:30;;;;;;;5.83;3.00;;;12.30;65.70;;;;;;5009458;28;20554;-50
2023/06/28 02:08:57;;;;;;;6.67;2.40;;;12.30;66.80;;;;;;5007537;28;20561;-50
2023/06/28 02:11:23;;;;;;;7.20;2.60;;;12.30;66.90;;;;;;5009441;28;20487;-55
2023/06/28 02:13:50;;;;;;;12.27;3.20;;;12.30;67.50;;;;;;5010493;28;20554;-50
2023/06/28 02:16:18;;;;;;;7.67;3.47;;;12.40;67.00;;;;;;5009195;28;20559;-50
2023/06/28 02:18:45;;;;;;;10.73;2.80;;;12.40;66.90;;;;;;5012822;28;20654;-50
2023/06/28 02:21:12;;;;;;;10.57;2.80;;;12.40;67.70;;;;;;5012661;28;20459;-50
2023/06/28 02:23:38;;;;;;;12.17;3.60;;;12.40;68.50;;;;;;5009362;28;20456;-49
2023/06/28 02:26:05;;;;;;;16.90;2.67;;;12.50;70.00;;;;;;5003035;28;20532;-51
2023/06/28 02:28:31;;;;;;;14.40;3.03;;;12.50;68.80;;;;;;5007028;28;22710;-50
2023/06/28 02:30:58;;;;;;;9.33;2.90;;;12.50;69.10;;;;;;5012304;28;20491;-50
2023/06/28 02:33:25;;;;;;;11.93;3.10;;;12.50;69.20;;;;;;5010765;28;21013;-50
2023/06/28 02:35:52;;;;;;;8.87;2.93;;;12.60;67.80;;;;;;5012634;28;20574;-50
2023/06/28 02:38:18;;;;;;;13.23;3.27;;;12.60;69.50;;;;;;5013222;28;20897;-51
2023/06/28 02:40:45;;;;;;;8.27;2.97;;;12.60;71.70;;;;;;5012278;28;20559;-49
2023/06/28 02:43:11;;;;;;;7.93;2.60;;;12.60;72.10;;;;;;5006820;28;20544;-50
2023/06/28 02:45:38;;;;;;;7.03;2.73;;;12.60;72.20;;;;;;5010957;28;21496;-49
2023/06/28 02:48:05;;;;;;;8.70;3.13;;;12.60;73.20;;;;;;5009554;28;20570;-49
2023/06/28 02:50:33;;;;;;;6.13;2.47;;;12.60;73.70;;;;;;5012263;28;20551;-49
2023/06/28 02:52:59;;;;;;;5.40;2.90;;;12.70;73.40;;;;;;5012668;28;20492;-50
2023/06/28 02:55:26;;;;;;;10.30;3.60;;;12.70;73.30;;;;;;5012685;28;21032;-50
2023/06/28 02:57:53;;;;;;;9.33;3.20;;;12.70;74.10;;;;;;5008445;28;20530;-50
2023/06/28 03:00:20;;;;;;;12.03;3.03;;;12.70;74.60;;;;;;5009953;28;20471;-50
2023/06/28 03:02:46;;;;;;;8.47;2.80;;;12.80;74.60;;;;;;5010342;28;20490;-50
2023/06/28 03:05:13;;;;;;;7.83;3.13;;;12.80;74.80;;;;;;5010173;28;20488;-49
2023/06/28 03:07:41;;;;;;;9.67;2.53;;;12.80;74.30;;;;;;5012164;28;20575;-50
2023/06/28 03:10:08;;;;;;;5.50;2.63;;;12.80;75.10;;;;;;5009674;28;22374;-50
2023/06/28 03:12:35;;;;;;;6.67;2.33;;;12.80;75.50;;;;;;5012774;28;20478;-50
2023/06/28 03:15:01;;;;;;;15.83;3.30;;;12.80;76.20;;;;;;5009225;28;20603;-50
2023/06/28 03:17:28;;;;;;;8.27;2.97;;;12.80;74.00;;;;;;5009229;28;21023;-49
2023/06/28 03:19:54;;;;;;;5.77;3.20;;;12.80;77.80;;;;;;5011685;28;20510;-49
2023/06/28 03:22:21;;;;;;;10.20;3.00;;;12.80;78.00;;;;;;5012605;28;20891;-49
2023/06/28 03:24:49;;;;;;;5.73;2.97;;;12.90;78.50;;;;;;5010734;28;20487;-50
2023/06/28 03:27:15;;;;;;;12.77;2.90;;;12.90;79.70;;;;;;5012385;28;20504;-50
2023/06/28 03:29:42;;;;;;;10.67;3.00;;;12.90;76.80;;;;;;5011579;28;20464;-50
2023/06/28 03:32:09;;;;;;;7.83;2.77;;;12.90;78.10;;;;;;5013495;28;20484;-50
2023/06/28 03:34:35;;;;;;;10.87;3.30;;;12.90;77.50;;;;;;5008022;28;20557;-51
2023/06/28 03:37:02;;;;;;;7.23;2.80;;;12.90;76.90;;;;;;5011133;28;20495;-50
2023/06/28 03:39:28;;;;;;;8.60;2.70;;;12.90;76.00;;;;;;5008157;28;20851;-51
2023/06/28 03:41:56;;;;;;;20.13;2.87;;;12.90;75.90;;;;;;5010093;28;20535;-51
2023/06/28 03:44:23;;;;;;;11.80;2.90;;;13.00;75.70;;;;;;5007708;28;20503;-50
2023/06/28 03:46:49;;;;;;;17.70;3.10;;;13.00;75.80;;;;;;5000874;28;20496;-50
2023/06/28 03:49:16;;;;;;;15.00;2.80;;;13.00;75.80;;;;;;5005741;28;20925;-49
2023/06/28 03:51:43;;;;;;;8.77;3.10;;;13.00;74.80;;;;;;5006602;28;20467;-50
2023/06/28 03:54:09;;;;;;;11.13;3.27;;;13.00;74.60;;;;;;5010978;28;20966;-50
2023/06/28 03:56:36;;;;;;;9.77;2.70;;;13.00;76.20;;;;;;5012997;28;20487;-55
2023/06/28 03:59:04;;;;;;;6.87;3.03;;;13.00;75.70;;;;;;5009619;28;20997;-54
2023/06/28 04:01:30;;;;;;;8.73;2.90;;;13.00;75.80;;;;;;5009743;28;20553;-54
2023/06/28 04:03:57;;;;;;;13.83;3.40;;;13.00;75.80;;;;;;5008778;28;20232;-55
2023/06/28 04:06:24;;;;;;;5.70;2.70;;;13.10;74.20;;;;;;4996171;28;20480;-53
2023/06/28 04:08:51;;;;;;;6.60;2.40;;;13.10;74.50;;;;;;5004710;28;20487;-50
2023/06/28 04:11:17;;;;;;;10.10;2.60;;;13.10;75.30;;;;;;5011830;28;20503;-51
2023/06/28 04:13:44;;;;;;;15.93;3.73;;;13.20;75.70;;;;;;5005379;28;20567;-53
2023/06/28 04:16:11;;;;;;;9.00;3.10;;;13.20;74.70;;;;;;5006191;28;20542;-52
2023/06/28 04:18:38;;;;;;;11.07;2.83;;;13.20;73.60;;;;;;5007756;28;20922;-52
2023/06/28 04:21:04;;;;;;;7.83;2.57;;;13.20;73.90;;;;;;5010756;28;20539;-52
2023/06/28 04:23:31;;;;;;;11.93;3.33;;;13.30;76.50;;;;;;5001028;28;20595;-53
2023/06/28 04:26:00;;;;;;;7.90;2.40;;;13.30;76.60;;;;;;5002742;28;20842;-52
2023/06/28 04:28:26;;;;;;;12.03;2.73;;;13.30;75.90;;;;;;5001775;28;20483;-51
2023/06/28 04:30:53;;;;;;;5.50;3.00;;;13.30;75.90;;;;;;4996471;28;21226;-52
2023/06/28 04:33:22;;;;;;;19.47;3.30;;;13.40;76.70;;;;;;5001689;28;20498;-52
2023/06/28 04:35:49;;;;;;;7.93;3.00;;;13.40;76.00;;;;;;5009886;28;20487;-52
2023/06/28 04:38:18;;;;;;;9.27;2.63;;;13.40;79.10;;;;;;5006627;28;20519;-51
2023/06/28 04:40:45;;;;;;;9.00;2.97;;;13.40;78.30;;;;;;5009599;28;20467;-53
2023/06/28 04:43:13;;;;;;;9.83;3.20;;;13.50;78.90;;;;;;5009351;28;21021;-52
2023/06/28 04:45:40;;;;;;;6.30;2.77;;;13.50;80.40;;;;;;5007463;28;20901;-52
2023/06/28 04:48:08;;;;;;;13.10;2.80;;;13.50;80.50;;;;;;5008649;28;20506;-52
2023/06/28 04:50:37;;;;;;;13.60;3.00;;;13.50;78.20;;;;;;5003163;28;20491;-52
2023/06/28 04:53:04;;;;;;;6.50;2.63;;;13.50;79.50;;;;;;4999223;28;20555;-52
2023/06/28 04:55:32;;;;;;;5.07;2.70;;;13.50;79.70;;;;;;5007042;28;20483;-52
2023/06/28 04:58:00;;;;;;;8.83;3.30;;;13.50;81.10;;;;;;4999481;28;20828;-52
2023/06/28 05:00:26;;;;;;;11.93;3.03;;;13.50;82.30;;;;;;4999986;28;20488;-52
2023/06/28 05:02:53;;;;;;;9.80;3.10;;;13.50;85.20;;;;;;5006690;28;20954;-51
2023/06/28 05:05:19;;;;;;;7.33;3.10;;;13.50;87.20;;;;;;5010128;28;20463;-52
2023/06/28 05:07:47;;;;;;;8.03;2.90;;;13.50;88.70;;;;;;5010496;28;20535;-51
2023/06/28 05:10:14;;;;;;;6.30;2.23;;;13.50;87.70;;;;;;5009772;28;20463;-52
2023/06/28 05:12:40;;;;;;;14.77;3.10;;;13.50;87.20;;;;;;5010178;28;20483;-53
2023/06/28 05:15:08;;;;;;;9.50;2.87;;;13.50;86.00;;;;;;5009124;28;20570;-52
2023/06/28 05:17:34;;;;;;;10.07;3.10;;;13.50;85.40;;;;;;5004690;28;21077;-52
2023/06/28 05:20:01;;;;;;;5.13;2.80;;;13.50;85.90;;;;;;5010222;28;20476;-51
2023/06/28 05:22:28;;;;;;;7.43;2.57;;;13.50;84.90;;;;;;5023140;28;20460;-51
2023/06/28 05:24:56;;;;;;;13.43;2.53;;;13.50;83.60;;;;;;5029491;28;20634;-51
2023/06/28 05:27:22;;;;;;;20.70;2.63;;;13.60;82.20;;;;;;5027290;28;20491;-51
2023/06/28 05:29:49;;;;;;;8.87;2.40;;;13.70;81.00;;;;;;5027103;28;20871;-51
2023/06/28 05:32:15;;;;;;;7.90;2.73;;;13.90;87.80;;;;;;5015372;28;20468;-51
2023/06/28 05:34:42;;;;;;;9.80;3.00;;;14.00;91.20;;;;;;5002863;28;20554;-52
2023/06/28 05:37:08;;;;;;;7.47;2.30;;;14.10;99.90;;;;;;5001352;28;20511;-54
2023/06/28 05:39:35;;;;;;;9.73;2.73;;;14.10;99.90;;;;;;5006461;28;20895;-50
2023/06/28 05:42:03;;;;;;;9.70;2.83;;;14.20;99.90;;;;;;5004752;28;20488;-49
2023/06/28 05:44:30;;;;;;;15.50;3.10;;;14.30;99.90;;;;;;5010889;28;20506;-51
2023/06/28 05:46:56;;;;;;;16.30;3.00;;;14.40;99.90;;;;;;5014289;28;20541;-54
2023/06/28 05:49:23;;;;;;;13.27;3.50;;;14.50;99.90;;;;;;5011446;28;21016;-55
2023/06/28 05:51:49;;;;;;;8.73;2.20;;;14.50;99.90;;;;;;5014343;28;20505;-54
2023/06/28 05:54:16;;;;;;;26.77;3.00;;;14.60;99.90;;;;;;5009033;28;20575;-54
2023/06/28 05:56:44;;;;;;;9.87;2.80;;;14.70;99.90;;;;;;5012179;28;20487;-55
2023/06/28 05:59:12;;;;;;;11.57;3.07;;;14.70;99.90;;;;;;5013943;28;20467;-54
2023/06/28 06:01:38;;;;;;;11.60;2.27;;;14.80;99.90;;;;;;5014180;28;20487;-54
2023/06/28 06:04:05;;;;;;;6.50;2.53;;;14.80;99.90;;;;;;5009855;28;20500;-54
2023/06/28 06:06:31;;;;;;;10.30;2.80;;;14.90;99.90;;;;;;5007956;28;20546;-54
2023/06/28 06:08:58;;;;;;;9.03;2.90;;;14.90;99.90;;;;;;5009747;28;20483;-54
2023/06/28 06:11:24;;;;;;;6.77;2.87;;;14.90;99.90;;;;;;5008415;28;20538;-55
2023/06/28 06:13:51;;;;;;;6.27;3.10;;;14.90;99.90;;;;;;5004665;28;20464;-54
2023/06/28 06:16:20;;;;;;;7.30;2.77;;;15.00;99.90;;;;;;5009169;28;21101;-54
2023/06/28 06:18:46;;;;;;;13.33;3.20;;;15.10;99.90;;;;;;5009787;28;20487;-54
2023/06/28 06:21:13;;;;;;;12.80;2.63;;;15.10;99.90;;;;;;5011984;28;20491;-54
2023/06/28 06:23:39;;;;;;;4.33;2.53;;;15.20;99.90;;;;;;5009682;28;20895;-54
2023/06/28 06:26:06;;;;;;;9.70;3.00;;;15.20;99.90;;;;;;5010810;28;20495;-54
2023/06/28 06:28:33;;;;;;;6.97;2.90;;;15.30;99.90;;;;;;5010241;28;20516;-54
2023/06/28 06:30:59;;;;;;;18.50;3.17;;;15.30;99.90;;;;;;5004326;28;20472;-53
2023/06/28 06:33:28;;;;;;;9.83;3.00;;;15.40;99.90;;;;;;5009234;28;20954;-54
2023/06/28 06:35:55;;;;;;;6.70;2.20;;;15.50;99.90;;;;;;5003494;28;20511;-52
2023/06/28 06:38:21;;;;;;;9.80;2.83;;;15.50;99.90;;;;;;5006859;28;20523;-52
2023/06/28 06:40:49;;;;;;;11.33;2.50;;;15.60;99.90;;;;;;5013251;28;20491;-52
2023/06/28 06:43:15;;;;;;;6.03;3.27;;;15.60;99.90;;;;;;5004862;28;20536;-51
2023/06/28 06:45:42;;;;;;;10.03;3.83;;;15.80;99.90;;;;;;5012633;28;20527;-52
2023/06/28 06:48:08;;;;;;;10.17;2.77;;;15.80;99.90;;;;;;5012063;28;20562;-51
2023/06/28 06:50:36;;;;;;;8.50;2.40;;;15.80;99.90;;;;;;5011867;28;20491;-52
2023/06/28 06:53:03;;;;;;;7.20;2.23;;;15.90;99.90;;;;;;5012968;28;20487;-53
2023/06/28 06:55:29;;;;;;;5.83;2.53;;;15.90;99.90;;;;;;5011156;28;20597;-52
2023/06/28 06:57:56;;;;;;;9.97;2.97;;;16.10;99.90;;;;;;5009979;28;20515;-51
2023/06/28 07:00:22;;;;;;;6.27;2.67;;;16.10;99.90;;;;;;5011356;28;20552;-52
2023/06/28 07:02:49;;;;;;;6.70;2.83;;;16.10;81.80;;;;;;5011318;28;20546;-52
2023/06/28 07:05:15;;;;;;;7.70;2.30;;;16.00;99.90;;;;;;5008948;28;20499;-52
2023/06/28 07:07:44;;;;;;;7.00;2.67;;;16.00;99.90;;;;;;5001974;28;20509;-51
2023/06/28 07:10:10;;;;;;;7.57;2.50;;;16.10;99.90;;;;;;5009341;28;20542;-51
2023/06/28 07:12:37;;;;;;;5.40;2.07;;;16.20;29.80;;;;;;4997472;28;20587;-50
2023/06/28 07:15:05;;;;;;;13.90;2.40;;;16.30;33.50;;;;;;5005243;28;20567;-50
2023/06/28 07:17:31;;;;;;;8.47;2.23;;;16.50;27.30;;;;;;5008343;28;20575;-50
2023/06/28 07:19:58;;;;;;;9.20;3.00;;;16.60;49.90;;;;;;5011555;28;20470;-50
2023/06/28 07:22:24;;;;;;;4.60;2.23;;;16.70;57.60;;;;;;5006420;28;20496;-50
2023/06/28 07:24:52;;;;;;;12.33;2.53;;;16.70;64.00;;;;;;5012858;28;20447;-49
2023/06/28 07:27:19;;;;;;;6.77;2.57;;;16.70;66.60;;;;;;5010320;28;20627;-50
2023/06/28 07:29:45;;;;;;;12.93;2.60;;;16.80;68.50;;;;;;5006706;28;20491;-49
2023/06/28 07:32:12;;;;;;;9.40;2.83;;;16.80;81.50;;;;;;5003386;28;20910;-49
2023/06/28 07:34:38;;;;;;;5.03;1.80;;;16.80;99.90;;;;;;5009920;28;20544;-54
2023/06/28 07:37:06;;;;;;;8.17;2.77;;;16.70;99.90;;;;;;5010956;28;20523;-54
2023/06/28 07:39:33;;;;;;;5.53;2.50;;;16.70;99.90;;;;;;5003650;28;20471;-54
2023/06/28 07:42:02;;;;;;;8.90;2.60;;;16.70;99.90;;;;;;5009863;28;20498;-55
2023/06/28 07:44:29;;;;;;;8.17;2.37;;;16.70;99.90;;;;;;4999240;28;20475;-55
2023/06/28 07:46:55;;;;;;;2.27;1.87;;;16.80;99.90;;;;;;5008778;28;20811;-55
2023/06/28 07:49:22;;;;;;;5.43;2.10;;;16.90;99.90;;;;;;5010961;28;20522;-54
2023/06/28 07:51:48;;;;;;;5.03;2.10;;;17.10;99.90;;;;;;5008055;28;20550;-54
2023/06/28 07:54:15;;;;;;;6.37;2.20;;;17.10;99.90;;;;;;5001305;28;20574;-54
2023/06/28 07:56:41;;;;;;;5.27;1.87;;;17.10;99.90;;;;;;5007501;28;20523;-54
2023/06/28 07:59:09;;;;;;;5.77;2.40;;;17.10;99.90;;;;;;5005094;28;20495;-55
2023/06/28 08:01:36;;;;;;;3.83;1.80;;;17.20;99.90;;;;;;4997082;28;20550;-55
2023/06/28 08:04:02;;;;;;;16.87;3.10;;;17.30;99.90;;;;;;5002043;28;20562;-54
2023/06/28 08:06:29;;;;;;;10.23;1.90;;;17.30;99.90;;;;;;5009284;28;20487;-54
2023/06/28 08:08:56;;;;;;;5.23;2.10;;;17.30;99.90;;;;;;5007057;28;20503;-57
2023/06/28 08:11:22;;;;;;;3.37;1.70;;;17.30;99.90;;;;;;5004772;28;20984;-54
2023/06/28 08:13:50;;;;;;;5.60;2.23;;;17.40;99.90;;;;;;5005931;28;20555;-54
2023/06/28 08:16:18;;;;;;;8.43;2.17;;;17.50;99.90;;;;;;5007511;28;20848;-54
2023/06/28 08:18:45;;;;;;;7.73;2.03;;;17.50;99.90;;;;;;5007141;28;20591;-54
2023/06/28 08:21:12;;;;;;;15.53;2.87;;;17.60;99.90;;;;;;5010869;28;20494;-56
2023/06/28 08:23:38;;;;;;;5.63;2.57;;;17.70;99.90;;;;;;5012823;28;20494;-56
2023/06/28 08:26:05;;;;;;;11.90;2.70;;;17.80;99.90;;;;;;5010403;28;20499;-55
2023/06/28 08:28:32;;;;;;;6.07;2.60;;;17.80;22.60;;;;;;5017137;28;20511;-54
2023/06/28 08:30:58;;;;;;;5.20;2.23;;;17.80;99.90;;;;;;5006738;28;21045;-54
2023/06/28 08:33:26;;;;;;;6.00;2.00;;;17.90;99.90;;;;;;5011005;28;20495;-55
2023/06/28 08:35:52;;;;;;;3.27;2.27;;;17.80;22.70;;;;;;5008443;28;20553;-55
2023/06/28 08:38:19;;;;;;;7.13;2.17;;;17.90;30.10;;;;;;5006093;28;20515;-55
2023/06/28 08:40:46;;;;;;;9.13;2.40;;;17.80;32.80;;;;;;5007393;28;20467;-55
2023/06/28 08:43:16;;;;;;;8.83;2.90;;;17.90;99.90;;;;;;5008306;28;20463;-55
2023/06/28 08:45:44;;;;;;;19.10;1.90;;;18.00;99.90;;;;;;5007236;28;20471;-55
2023/06/28 08:48:12;;;;;;;4.80;1.90;;;18.00;25.80;;;;;;5006496;28;20595;-54
2023/06/28 08:50:41;;;;;;;3.90;2.23;;;18.00;48.30;;;;;;5006044;28;20551;-54
2023/06/28 08:53:09;;;;;;;3.97;2.03;;;18.20;46.40;;;;;;5001370;28;20551;-55
2023/06/28 08:55:36;;;;;;;5.83;2.17;;;18.30;40.60;;;;;;5008460;28;20487;-54
2023/06/28 08:58:04;;;;;;;4.07;2.00;;;18.30;41.70;;;;;;5009446;28;20491;-55
2023/06/28 09:00:30;;;;;;;6.37;2.47;;;18.30;41.60;;;;;;5006913;28;20828;-55
2023/06/28 09:02:58;;;;;;;5.03;2.13;;;18.50;37.00;;;;;;5003510;28;20471;-54
2023/06/28 09:05:24;;;;;;;6.63;1.90;;;18.80;56.20;;;;;;5009285;28;21016;-55
2023/06/28 09:07:57;;;;;;;3.50;1.87;;;19.20;69.70;;;;;;5009240;28;20994;-54
2023/06/28 09:10:24;;;;;;;4.40;1.83;;;19.10;97.80;;;;;;5010667;28;20482;-55
2023/06/28 09:12:51;;;;;;;6.17;2.30;;;19.10;99.90;;;;;;5009911;28;20499;-54
2023/06/28 09:15:20;;;;;;;7.67;2.10;;;19.30;99.90;;;;;;5002265;28;20471;-54
2023/06/28 09:17:46;;;;;;;9.60;2.30;;;19.70;99.90;;;;;;5005192;28;20483;-54
2023/06/28 09:20:17;;;;;;;8.60;2.00;;;20.00;99.90;;;;;;5013225;28;20542;-54
2023/06/28 09:22:43;;;;;;;5.37;2.20;;;19.90;99.90;;;;;;5010720;28;20460;-54
2023/06/28 09:25:15;;;;;;;4.20;2.10;;;19.90;99.90;;;;;;5008042;28;20535;-54
2023/06/28 09:27:42;;;;;;;3.30;1.73;;;19.90;99.90;;;;;;5013499;28;20468;-55
2023/06/28 09:30:16;;;;;;;4.57;2.13;;;19.50;99.90;;;;;;5011919;28;20491;-54
2023/06/28 09:32:45;;;;;;;3.67;2.10;;;19.60;99.90;;;;;;5002824;28;20502;-54
2023/06/28 09:35:12;;;;;;;6.80;2.00;;;19.40;99.90;;;;;;5013616;28;20491;-55
2023/06/28 09:37:39;;;;;;;10.57;2.17;;;19.50;99.90;;;;;;5012214;28;20582;-54
2023/06/28 09:40:06;;;;;;;3.33;1.60;;;19.30;99.90;;;;;;5013114;28;20506;-54
2023/06/28 09:42:43;;;;;;;2.03;1.63;;;19.20;99.90;;;;;;5012604;28;20498;-56
2023/06/28 09:45:11;;;;;;;3.33;1.80;;;19.20;99.90;;;;;;5009705;28;20470;-55
2023/06/28 09:47:37;;;;;;;6.37;2.20;;;19.80;99.90;;;;;;5011762;28;20522;-54
2023/06/28 09:50:05;;;;;;;4.80;1.80;;;20.10;99.90;;;;;;5007801;28;20459;-55
2023/06/28 09:52:36;;;;;;;3.63;1.40;;;20.70;99.90;;;;;;5008966;28;20542;-55
2023/06/28 09:55:04;;;;;;;2.87;1.40;;;21.10;99.90;;;;;;5011083;28;20491;-54
2023/06/28 09:57:32;;;;;;;6.93;1.87;;;20.60;99.90;;;;;;5008215;28;20495;-50
2023/06/28 10:00:03;;;;;;;3.87;1.90;;;20.70;99.90;;;;;;5009979;28;20853;-50
2023/06/28 10:02:31;;;;;;;2.43;1.60;;;20.80;99.90;;;;;;5006203;28;20484;-50
2023/06/28 10:05:00;;;;;;;5.73;1.93;;;20.70;99.90;;;;;;5009193;28;20535;-50
2023/06/28 10:07:27;;;;;;;8.83;1.93;;;20.50;99.90;;;;;;5011286;28;20472;-50
2023/06/28 10:09:55;;;;;;;3.00;2.10;;;20.40;99.90;;;;;;5012666;28;20490;-51
2023/06/28 10:12:26;;;;;;;6.50;2.20;;;20.30;99.90;;;;;;5014362;28;20463;-50
2023/06/28 10:14:56;;;;;;;7.00;2.37;;;20.20;99.90;;;;;;5013410;28;20506;-50
2023/06/28 10:17:25;;;;;;;9.07;1.80;;;20.00;99.90;;;;;;5013304;28;20514;-50
2023/06/28 10:19:53;;;;;;;2.77;1.60;;;20.00;99.90;;;;;;5013579;28;20977;-50
2023/06/28 10:22:20;;;;;;;3.17;1.60;;;20.00;99.90;;;;;;5013013;28;20529;-50
2023/06/28 10:24:47;;;;;;;5.00;1.77;;;20.00;99.90;;;;;;5009886;28;20502;-49
2023/06/28 10:27:14;;;;;;;4.43;1.93;;;20.10;99.90;;;;;;5008202;28;20534;-50
2023/06/28 10:29:43;;;;;;;6.83;2.23;;;19.90;99.90;;;;;;5011616;28;20499;-49
2023/06/28 10:32:11;;;;;;;2.67;1.60;;;19.80;99.90;;;;;;5013164;28;20874;-50
2023/06/28 10:34:39;;;;;;;5.20;1.67;;;19.80;99.90;;;;;;5012834;28;20492;-50
2023/06/28 10:37:06;;;;;;;4.30;1.87;;;19.90;99.90;;;;;;5014316;28;20522;-50
2023/06/28 10:39:34;;;;;;;3.73;1.40;;;20.10;99.90;;;;;;5009212;28;20549;-51
2023/06/28 10:42:01;;;;;;;3.43;1.20;;;20.30;99.90;;;;;;5005834;28;20877;-51
2023/06/28 10:44:28;;;;;;;4.27;1.60;;;20.40;99.90;;;;;;5012281;28;20551;-51
2023/06/28 10:47:08;;;;;;;3.33;1.70;;;20.40;99.90;;;;;;5011556;28;20483;-50
2023/06/28 10:49:35;;;;;;;5.23;2.10;;;20.20;99.90;;;;;;5010999;28;20444;-52
2023/06/28 10:52:04;;;;;;;3.03;1.90;;;20.10;99.90;;;;;;5013637;28;20471;-51
2023/06/28 10:54:30;;;;;;;3.47;2.40;;;20.20;99.90;;;;;;5013676;28;20483;-51
2023/06/28 10:57:08;;;;;;;4.50;1.83;;;20.50;99.90;;;;;;5013525;28;20579;-53
2023/06/28 10:59:36;;;;;;;16.23;2.40;;;20.40;99.90;;;;;;5012928;28;20510;-52
2023/06/28 11:02:03;;;;;;;6.77;2.10;;;20.60;99.90;;;;;;5008826;28;21003;-52
2023/06/28 11:04:30;;;;;;;2.60;1.60;;;20.70;99.90;;;;;;5008319;28;20539;-52
2023/06/28 11:07:16;;;;;;;5.50;1.60;;;20.60;99.90;;;;;;5007797;28;21230;-52
2023/06/28 11:10:10;;;;;;;6.97;2.33;;;20.40;99.90;;;;;;5003086;28;20546;-52
2023/06/28 11:12:38;;;;;;;5.93;2.63;;;20.40;99.90;;;;;;5005342;28;20496;-52
2023/06/28 11:15:08;;;;;;;6.63;1.63;;;20.40;99.90;;;;;;5010910;28;20467;-51
2023/06/28 11:17:35;;;;;;;4.83;1.90;;;20.20;99.90;;;;;;5007671;28;20487;-52
2023/06/28 11:20:06;;;;;;;3.90;1.63;;;20.30;99.90;;;;;;5013449;28;20456;-53
2023/06/28 11:22:49;;;;;;;6.27;1.80;;;20.50;99.90;;;;;;5006884;28;20468;-51
2023/06/28 11:25:16;;;;;;;5.97;1.60;;;20.60;99.90;;;;;;5001805;28;20463;-53
2023/06/28 11:27:42;;;;;;;8.23;2.20;;;20.60;99.90;;;;;;5011539;28;20507;-53
2023/06/28 11:30:10;;;;;;;3.67;1.53;;;20.40;99.90;;;;;;5012255;28;20996;-52
2023/06/28 11:32:37;;;;;;;9.27;1.90;;;20.60;99.90;;;;;;5012373;28;20937;-52
2023/06/28 11:35:05;;;;;;;5.60;2.03;;;20.60;99.90;;;;;;5013118;28;20440;-52
2023/06/28 11:37:32;;;;;;;2.10;1.50;;;20.70;99.90;;;;;;5011022;28;20484;-58
2023/06/28 11:40:00;;;;;;;3.73;1.60;;;20.70;99.90;;;;;;5008125;28;20463;-52
2023/06/28 11:42:27;;;;;;;3.03;1.83;;;20.70;99.90;;;;;;5009940;28;20961;-53
2023/06/28 11:44:53;;;;;;;4.13;1.70;;;20.50;99.90;;;;;;5000990;28;20550;-53
2023/06/28 11:47:21;;;;;;;3.30;2.27;;;20.50;99.90;;;;;;5005348;28;20479;-52
2023/06/28 11:49:49;;;;;;;3.60;1.97;;;20.50;99.90;;;;;;5011589;28;20471;-53
2023/06/28 11:52:16;;;;;;;5.33;2.20;;;20.50;99.90;;;;;;5011690;28;21147;-53
2023/06/28 11:54:43;;;;;;;2.83;1.73;;;20.50;99.90;;;;;;5008863;28;20555;-52
2023/06/28 11:57:12;;;;;;;8.60;1.70;;;20.60;99.90;;;;;;5008866;28;21041;-53
2023/06/28 11:59:44;;;;;;;6.40;1.73;;;20.70;99.90;;;;;;5013117;28;20985;-54
2023/06/28 12:02:11;;;;;;;6.43;1.87;;;20.80;99.90;;;;;;5011983;28;20864;-54
2023/06/28 12:04:39;;;;;;;6.00;1.83;;;20.70;99.90;;;;;;5011054;28;20518;-55
2023/06/28 12:07:06;;;;;;;6.13;1.63;;;20.90;99.90;;;;;;5012845;28;20515;-55
2023/06/28 12:09:35;;;;;;;3.90;1.80;;;20.90;99.90;;;;;;5012982;28;20494;-55
2023/06/28 12:12:05;;;;;;;2.30;1.43;;;20.90;99.90;;;;;;5012871;28;20447;-54
2023/06/28 12:14:39;;;;;;;3.47;1.80;;;21.10;99.90;;;;;;5009565;28;21052;-56
2023/06/28 12:17:06;;;;;;;8.17;2.30;;;21.10;99.90;;;;;;5009276;28;20482;-55
2023/06/28 12:19:33;;;;;;;9.97;1.73;;;21.00;99.90;;;;;;5012282;28;20495;-54
2023/06/28 12:22:02;;;;;;;6.03;2.10;;;20.90;99.90;;;;;;5011338;28;20839;-54
2023/06/28 12:24:29;;;;;;;3.53;1.50;;;21.00;99.90;;;;;;5011384;28;20505;-55
2023/06/28 12:26:58;;;;;;;2.70;1.70;;;21.20;99.90;;;;;;5012153;28;20462;-56
2023/06/28 12:29:26;;;;;;;2.27;1.73;;;21.40;99.90;;;;;;5011319;28;20483;-55
2023/06/28 12:31:58;;;;;;;8.77;2.30;;;21.60;1.40;;;;;;5006389;28;20471;-56
2023/06/28 12:34:26;;;;;;;3.57;1.60;;;21.70;99.90;;;;;;5007925;28;20486;-55
2023/06/28 12:36:55;;;;;;;1.90;1.60;;;21.70;99.90;;;;;;5011309;28;20514;-55
2023/06/28 12:39:23;;;;;;;3.10;1.53;;;21.80;99.90;;;;;;5010556;28;20570;-55
2023/06/28 12:42:04;;;;;;;6.23;1.90;;;21.70;99.90;;;;;;5010272;28;20547;-56
2023/06/28 12:44:31;;;;;;;14.27;2.10;;;22.60;99.90;;;;;;5005802;28;20464;-56
2023/06/28 12:46:59;;;;;;;4.73;1.73;;;23.10;99.90;;;;;;5008084;28;20460;-55